My Meet Scores
Julia Walters, Gymnastics and Cheerleading Academy CT - MyMeetScores.com
Top100 | Top Teams | Upcoming Meets | Completed Meets | Latest | Add Scores | Help| Support | Bookmark and Share

Julia Walters, Gymnastics and Cheerleading Academy CT
Personal Bests
LevelVault BarsBeamFloorAA
XB9.0759.550 9.3509.25036.625
XG8.2509.575 8.2009.07534.950
XS9.2509.500 9.3009.30036.900
Meet Scores
Date Meet Team Session Level Division Vault Bars Beam Floor AA
2020-03-07 Holiday Costume Cup 2020 Gymnastics and Cheerleading Academy CT 09 XG Younger 8.250 10 9.150 4 7.900 12 8.875 11 34.175 12
2020-02-15 Chelsea Piers Winter Challenge Gymnastics and Cheerleading Academy CT F3 XG Middle 8.100 20T 9.575 6 8.200 20T 9.075 14T 34.950 18
2019-12-06 Rhode Island Invitational Gymnastics and Cheerleading Academy CT BF3 XG intermedia 6.000 11 8.250 10 8.100 11 8.450 11 30.800 11
2019-05-04 2019 CT XCEL Silver State Championship Gymnastics and Cheerleading Academy CT 2 XS Jr E 9.200 3T 8.900 9 9.250 5T 8.800 7 36.150 6T
2019-04-06 April 6th ABC Shoreline Local Gymnastics and Cheerleading Academy CT 2 XS Ch 9-11 9.250 7T 9.150 23T 9.300 19T 9.200 9T 36.900 11T
2019-02-16 Chelsea Piers Winter Challenge Gymnastics and Cheerleading Academy CT F2 XS Middle 8.900 18T 9.200 14T 9.200 12T 8.700 19T 36.000 15
2019-01-18 DGS Northeast Invite Gymnastics and Cheerleading Academy CT 8B XS Ch C 8.350 4T 9.100 4T 9.300 4T 9.000 3T 35.750 4T
2018-11-30 Rhode Island Invitational Gymnastics and Cheerleading Academy CT WU2 XS Junior 8.575 4 9.025 9 9.150 5 8.800 8T 35.550 6
2018-05-05 2018 CT XCEL Silver State Championships Gymnastics and Cheerleading Academy CT 5 XS Ch F 8.700 7T 9.100 3 8.300 16 9.075 10 35.175 11
2018-02-17 2/17,18/2018 CT Inhouse Valentine Invt Gymnastics and Cheerleading Academy CT 2 XS Younger 8.800 8T 8.500 12T 8.750 5 8.900 12 34.950 13
2018-01-26 2018 American Invitational Gymnastics and Cheerleading Academy CT 1A XS Younger 8.300 3 9.100 3 9.050 2 9.050 2 35.500 1
2018-01-19 Kinetic Kids Invitational Gymnastics and Cheerleading Academy CT 3 XS Jr A 8.700 9* 9.500 1 8.500 8T 9.300 1T 36.000 4T
2017-11-30 Rhode Island Invitational Gymnastics and Cheerleading Academy CT WU3 XS child 7.600 10 8.400 10 8.825 8 8.750 6 33.575 8
2017-05-13 2017 Xcel Bronze Connecticut State Cup Gymnastics and Cheerleading Academy CT 1 XB All Ages 9.075 41T 9.425 8 9.000 20T 9.125 21T 36.625 15T
2016-12-02 Rhode Island Invitational Gymnastics and Cheerleading Academy CT WU1 XB Child 8.925 5 9.225 3T 8.875 4 9.250 2 36.275 3
2016-11-18 2016 Muriel Grossfeld Invitational Gymnastics and Cheerleading Academy CT 5 XB Junior 8.450 6 9.400 1 8.450 1 8.800 3T 35.100 2
2016-05-15 2016 Connecticut XB State Cup Gymnastics and Cheerleading Academy CT 1 XB All Ages 8.400 47T 9.150 14T 9.350 27T 9.075 25T 35.975 32T
2016-02-13 Chelsea Piers Winter Challenge Gymnastics and Cheerleading Academy CT CT5 XB CH 8.675 4T 9.550 1 9.175 8T 8.450 11T 35.850 3
2016-01-15 DGS Invitational Gymnastics and Cheerleading Academy CT B12 XB 8 yrs. 8.700 7T 9.100 6T 8.500 13 9.000 6 35.300 7
2015-12-17 2015 Atlantis Crown Gymnastics and Cheerleading Academy CT 03 XB 7-9 yrs 8.450 7 8.950 6 8.450 7 8.000 8 33.850 7
Get your scores on
a t-shirt, pin, or hoodie

www.lazysuits.com